createdAt,value
2022-08-30T00:00:16.634Z,5.90
2022-08-30T00:02:45.024Z,7.07
2022-08-30T00:05:13.377Z,7.32
2022-08-30T00:07:40.700Z,8.43
2022-08-30T00:10:08.426Z,6.60
2022-08-30T00:12:35.931Z,5.35
2022-08-30T00:15:09.691Z,5.25
2022-08-30T00:17:43.449Z,7.60
2022-08-30T00:20:15.923Z,5.93
2022-08-30T00:22:43.165Z,6.93
2022-08-30T00:25:14.063Z,7.22
2022-08-30T00:27:45.269Z,7.95
2022-08-30T00:30:15.133Z,7.37
2022-08-30T00:32:42.374Z,7.72
2022-08-30T00:35:14.189Z,7.45
2022-08-30T00:37:44.481Z,7.22
2022-08-30T00:40:34.847Z,10.07
2022-08-30T00:43:06.464Z,6.40
2022-08-30T00:45:35.927Z,5.35
2022-08-30T00:48:07.218Z,6.50
2022-08-30T00:50:42.021Z,7.75
2022-08-30T00:53:16.128Z,6.20
2022-08-30T00:55:49.021Z,6.00
2022-08-30T00:58:21.773Z,5.47
2022-08-30T01:00:51.224Z,8.98
2022-08-30T01:03:21.113Z,7.13
2022-08-30T01:05:52.015Z,9.38
2022-08-30T01:08:22.655Z,5.35
2022-08-30T01:10:54.880Z,7.35
2022-08-30T01:13:23.721Z,5.60
2022-08-30T01:15:53.955Z,6.03
2022-08-30T01:18:25.803Z,6.30
2022-08-30T01:21:10.959Z,6.72
2022-08-30T01:23:42.059Z,5.97
2022-08-30T01:26:10.726Z,5.78
2022-08-30T01:28:42.517Z,8.90
2022-08-30T01:31:12.287Z,7.57
2022-08-30T01:33:40.048Z,8.68
2022-08-30T01:36:12.319Z,7.28
2022-08-30T01:38:48.718Z,6.75
2022-08-30T01:41:22.290Z,7.53
2022-08-30T01:43:50.863Z,6.45
2022-08-30T01:46:20.405Z,8.85
2022-08-30T01:48:52.005Z,6.07
2022-08-30T01:51:24.462Z,7.68
2022-08-30T01:53:52.986Z,8.57
2022-08-30T01:56:20.460Z,6.35
2022-08-30T01:58:50.083Z,12.75
2022-08-30T02:01:22.285Z,9.23
2022-08-30T02:03:49.851Z,9.02
2022-08-30T02:06:22.843Z,11.52
2022-08-30T02:08:50.429Z,8.80
2022-08-30T02:11:17.962Z,9.00
2022-08-30T02:13:46.227Z,6.55
2022-08-30T02:16:17.435Z,6.97
2022-08-30T02:18:45.515Z,9.15
2022-08-30T02:21:13.968Z,7.68
2022-08-30T02:23:42.031Z,8.48
2022-08-30T02:26:10.652Z,6.18
2022-08-30T02:28:42.841Z,7.20
2022-08-30T02:31:20.393Z,7.85
2022-08-30T02:33:50.768Z,8.07
2022-08-30T02:36:20.704Z,7.32
2022-08-30T02:38:49.246Z,9.20
2022-08-30T02:41:17.500Z,7.97
2022-08-30T02:43:47.284Z,13.68
2022-08-30T02:46:14.649Z,9.57
2022-08-30T02:48:42.761Z,7.07
2022-08-30T02:51:12.850Z,8.07
2022-08-30T02:53:43.696Z,6.47
2022-08-30T02:56:13.736Z,8.32
2022-08-30T02:58:42.581Z,5.85
2022-08-30T03:01:18.387Z,7.30
2022-08-30T03:03:47.307Z,6.88
2022-08-30T03:06:14.986Z,8.02
2022-08-30T03:08:45.071Z,8.05
2022-08-30T03:11:13.788Z,7.80
2022-08-30T03:13:41.599Z,7.15
2022-08-30T03:16:11.859Z,6.35
2022-08-30T03:18:43.157Z,7.05
2022-08-30T03:21:15.848Z,6.30
2022-08-30T03:23:44.148Z,5.88
2022-08-30T03:26:14.759Z,8.00
2022-08-30T03:28:45.431Z,13.75
2022-08-30T03:31:15.235Z,9.18
2022-08-30T03:33:43.248Z,7.78
2022-08-30T03:36:10.973Z,7.47
2022-08-30T03:38:38.857Z,8.20
2022-08-30T03:41:09.180Z,5.88
2022-08-30T03:43:41.153Z,8.52
2022-08-30T03:46:11.932Z,7.60
2022-08-30T03:48:39.610Z,5.53
2022-08-30T03:51:06.860Z,8.50
2022-08-30T03:53:37.082Z,7.82
2022-08-30T03:56:04.458Z,8.77
2022-08-30T03:58:31.774Z,11.18
2022-08-30T04:00:59.511Z,10.25
2022-08-30T04:03:26.814Z,9.07
2022-08-30T04:05:56.843Z,8.85
2022-08-30T04:08:26.781Z,10.75
2022-08-30T04:10:55.558Z,6.38
2022-08-30T04:13:24.148Z,10.45
2022-08-30T04:15:51.507Z,6.45
2022-08-30T04:18:21.322Z,7.90
2022-08-30T04:20:49.133Z,8.73
2022-08-30T04:23:21.536Z,9.00
2022-08-30T04:25:48.871Z,7.93
2022-08-30T04:28:21.501Z,8.90
2022-08-30T04:30:51.605Z,6.33
2022-08-30T04:33:19.715Z,8.43
2022-08-30T04:35:50.509Z,10.73
2022-08-30T04:38:18.417Z,9.05
2022-08-30T04:40:50.151Z,7.32
2022-08-30T04:43:20.062Z,7.45
2022-08-30T04:45:48.224Z,6.45
2022-08-30T04:48:18.539Z,7.78
2022-08-30T04:50:46.540Z,6.13
2022-08-30T04:53:17.703Z,13.95
2022-08-30T04:55:47.423Z,8.50
2022-08-30T04:58:19.951Z,11.60
2022-08-30T05:00:47.246Z,8.37
2022-08-30T05:03:16.240Z,6.55
2022-08-30T05:05:50.830Z,8.63
2022-08-30T05:08:24.778Z,7.80
2022-08-30T05:10:55.671Z,8.35
2022-08-30T05:13:26.228Z,7.95
2022-08-30T05:16:07.831Z,6.75
2022-08-30T05:18:39.273Z,12.15
2022-08-30T05:21:13.282Z,10.52
2022-08-30T05:23:41.558Z,6.95
2022-08-30T05:26:14.609Z,8.27
2022-08-30T05:28:47.768Z,9.73
2022-08-30T05:31:26.164Z,8.63
2022-08-30T05:33:55.048Z,10.80
2022-08-30T05:36:27.548Z,7.65
2022-08-30T05:38:56.286Z,9.57
2022-08-30T05:41:26.712Z,10.00
2022-08-30T05:43:58.334Z,10.30
2022-08-30T05:49:10.737Z,9.95
2022-08-30T05:51:43.294Z,8.93
2022-08-30T05:54:13.105Z,8.68
2022-08-30T05:56:41.715Z,10.40
2022-08-30T05:59:09.209Z,9.52
2022-08-30T06:01:42.690Z,9.57
2022-08-30T06:04:16.269Z,9.57
2022-08-30T06:09:13.439Z,8.65
2022-08-30T06:11:41.516Z,10.35
2022-08-30T06:14:09.050Z,10.15
2022-08-30T06:16:38.883Z,9.40
2022-08-30T06:19:11.204Z,10.85
2022-08-30T06:21:42.417Z,8.65
2022-08-30T06:24:11.354Z,10.95
2022-08-30T06:26:42.340Z,8.63
2022-08-30T06:29:16.791Z,7.95
2022-08-30T06:31:44.406Z,6.70
2022-08-30T06:34:12.289Z,7.35
2022-08-30T06:36:40.124Z,9.55
2022-08-30T06:39:09.960Z,9.23
2022-08-30T06:41:39.157Z,9.27
2022-08-30T06:44:06.707Z,11.93
2022-08-30T06:46:37.212Z,9.75
2022-08-30T06:49:06.259Z,9.40
2022-08-30T06:51:39.727Z,9.32
2022-08-30T06:54:10.730Z,7.97
2022-08-30T06:56:57.803Z,8.05
2022-08-30T06:59:27.031Z,10.13
2022-08-30T07:01:57.658Z,8.25
2022-08-30T07:04:28.899Z,9.15
2022-08-30T07:06:58.987Z,10.02
2022-08-30T07:09:26.435Z,12.75
2022-08-30T07:11:54.234Z,10.18
2022-08-30T07:14:22.543Z,8.95
2022-08-30T07:16:51.147Z,8.45
2022-08-30T07:19:21.056Z,7.75
2022-08-30T07:21:51.770Z,8.23
2022-08-30T07:24:21.191Z,6.25
2022-08-30T07:26:51.723Z,9.80
2022-08-30T07:29:21.172Z,9.00
2022-08-30T07:31:48.813Z,7.75
2022-08-30T07:34:16.419Z,13.88
2022-08-30T07:36:44.155Z,8.15
2022-08-30T07:39:11.941Z,6.47
2022-08-30T07:41:41.842Z,11.02
2022-08-30T07:44:09.266Z,8.00
2022-08-30T07:46:38.623Z,8.20
2022-08-30T07:49:10.983Z,9.65
2022-08-30T07:51:40.490Z,8.45
2022-08-30T07:54:08.159Z,5.72
2022-08-30T07:56:36.782Z,8.88
2022-08-30T07:59:04.456Z,8.02
2022-08-30T08:01:32.966Z,6.15
2022-08-30T08:04:02.955Z,8.82
2022-08-30T08:06:35.202Z,9.57
2022-08-30T08:09:02.898Z,5.60
2022-08-30T08:11:33.819Z,7.93
2022-08-30T08:14:02.351Z,10.60
2022-08-30T08:16:31.582Z,7.70
2022-08-30T08:19:02.360Z,7.20
2022-08-30T08:21:32.094Z,6.03
2022-08-30T08:23:59.313Z,6.25
2022-08-30T08:26:26.976Z,6.68
2022-08-30T08:28:59.668Z,7.75
2022-08-30T08:31:33.412Z,7.18
2022-08-30T08:34:06.233Z,7.25
2022-08-30T08:36:35.741Z,6.78
2022-08-30T08:39:08.174Z,10.07
2022-08-30T08:42:08.953Z,6.07
2022-08-30T08:45:05.442Z,7.13
2022-08-30T08:48:13.900Z,5.55
2022-08-30T08:51:02.746Z,6.50
2022-08-30T08:53:45.961Z,5.25
2022-08-30T08:56:17.576Z,4.97
2022-08-30T08:58:51.510Z,8.05
2022-08-30T09:01:28.668Z,4.93
2022-08-30T09:04:07.883Z,5.32
2022-08-30T09:06:53.813Z,6.72
2022-08-30T09:09:46.448Z,5.45
2022-08-30T09:12:16.349Z,4.63
2022-08-30T09:14:48.220Z,5.55
2022-08-30T09:17:17.755Z,9.43
2022-08-30T09:19:59.037Z,4.65
2022-08-30T09:22:46.791Z,3.95
2022-08-30T09:25:28.789Z,4.15
2022-08-30T09:28:12.959Z,10.40
2022-08-30T09:31:27.000Z,3.78
2022-08-30T09:34:05.558Z,4.15
2022-08-30T09:36:44.036Z,5.95
2022-08-30T09:39:33.674Z,5.45
2022-08-30T09:42:31.086Z,4.22
2022-08-30T09:45:10.506Z,4.88
2022-08-30T09:47:43.202Z,7.13
2022-08-30T09:50:17.917Z,5.47
2022-08-30T09:53:31.130Z,5.70
2022-08-30T09:56:20.954Z,4.95
2022-08-30T09:59:19.265Z,6.97
2022-08-30T10:01:57.010Z,4.35
2022-08-30T10:05:01.744Z,4.63
2022-08-30T10:07:42.744Z,6.15
2022-08-30T10:10:51.260Z,4.57
2022-08-30T10:13:42.941Z,6.03
2022-08-30T10:16:21.262Z,7.63
2022-08-30T10:19:06.211Z,8.20
2022-08-30T10:21:45.223Z,6.53
2022-08-30T10:24:21.340Z,6.85
2022-08-30T10:27:03.308Z,8.02
2022-08-30T10:29:44.843Z,5.20
2022-08-30T10:32:28.438Z,5.13
2022-08-30T10:35:19.312Z,5.47
2022-08-30T10:37:57.126Z,9.05
2022-08-30T10:40:50.712Z,5.70
2022-08-30T10:43:42.924Z,4.93
2022-08-30T10:46:41.782Z,3.85
2022-08-30T10:49:19.799Z,5.47
2022-08-30T10:51:58.898Z,6.35
2022-08-30T10:54:50.442Z,2.72
2022-08-30T10:57:21.277Z,5.43
2022-08-30T10:59:56.736Z,5.82
2022-08-30T11:02:39.194Z,4.50
2022-08-30T11:05:28.101Z,7.38
2022-08-30T11:08:00.462Z,5.72
2022-08-30T11:10:56.916Z,5.97
2022-08-30T11:13:27.466Z,5.55
2022-08-30T11:15:59.862Z,3.78
2022-08-30T11:18:43.344Z,6.60
2022-08-30T11:21:42.519Z,4.55
2022-08-30T11:24:25.344Z,5.93
2022-08-30T11:26:59.580Z,5.00
2022-08-30T11:29:35.425Z,7.97
2022-08-30T11:32:17.250Z,7.82
2022-08-30T11:34:47.442Z,4.10
2022-08-30T11:37:15.302Z,8.93
2022-08-30T11:39:47.164Z,5.15
2022-08-30T11:42:42.440Z,4.18
2022-08-30T11:45:26.821Z,4.25
2022-08-30T11:48:00.700Z,4.78
2022-08-30T11:51:04.414Z,4.65
2022-08-30T11:53:48.324Z,5.88
2022-08-30T11:56:49.107Z,3.40
2022-08-30T11:59:54.192Z,6.95
2022-08-30T12:02:50.454Z,4.35
2022-08-30T12:05:38.180Z,5.35
2022-08-30T12:08:20.358Z,3.13
2022-08-30T12:10:56.312Z,5.85
2022-08-30T12:13:38.784Z,4.13
2022-08-30T12:16:16.215Z,5.57
2022-08-30T12:18:52.773Z,5.65
2022-08-30T12:21:28.682Z,5.30
2022-08-30T12:24:10.071Z,4.13
2022-08-30T12:26:42.933Z,7.15
2022-08-30T12:29:17.951Z,5.22
2022-08-30T12:31:51.932Z,3.35
2022-08-30T12:34:27.740Z,9.43
2022-08-30T12:37:26.282Z,8.05
2022-08-30T12:40:14.627Z,6.07
2022-08-30T12:42:55.569Z,5.32
2022-08-30T12:45:26.893Z,4.07
2022-08-30T12:48:04.408Z,9.55
2022-08-30T12:50:37.826Z,4.38
2022-08-30T12:53:13.926Z,5.40
2022-08-30T12:56:14.254Z,2.72
2022-08-30T12:58:53.264Z,4.03
2022-08-30T13:01:36.922Z,3.17
2022-08-30T13:04:21.990Z,5.53
2022-08-30T13:07:01.105Z,4.38
2022-08-30T13:09:44.069Z,2.90
2022-08-30T13:12:23.042Z,3.20
2022-08-30T13:14:52.415Z,3.35
2022-08-30T13:17:30.289Z,4.13
2022-08-30T13:20:30.396Z,5.13
2022-08-30T13:23:03.528Z,5.10
2022-08-30T13:28:02.213Z,5.47
2022-08-30T13:30:30.787Z,3.42
2022-08-30T13:32:58.936Z,3.20
2022-08-30T13:35:30.517Z,7.63
2022-08-30T13:38:00.998Z,3.40
2022-08-30T13:40:28.498Z,8.43
2022-08-30T13:42:55.830Z,3.85
2022-08-30T13:45:45.695Z,6.32
2022-08-30T13:48:17.355Z,3.42
2022-08-30T13:50:55.491Z,3.40
2022-08-30T13:56:14.044Z,3.85
2022-08-30T13:58:42.169Z,3.55
2022-08-30T14:01:12.014Z,3.13
2022-08-30T14:04:13.186Z,3.45
2022-08-30T14:06:34.336Z,2.60
2022-08-30T14:09:06.312Z,3.67
2022-08-30T14:11:34.995Z,4.53
2022-08-30T14:14:30.213Z,2.60
2022-08-30T14:16:53.559Z,4.97
2022-08-30T14:19:20.972Z,4.07
2022-08-30T14:21:48.886Z,3.90
2022-08-30T14:24:19.940Z,8.48
2022-08-30T14:26:51.256Z,2.40
2022-08-30T14:29:21.975Z,4.28
2022-08-30T14:31:49.435Z,2.83
2022-08-30T14:34:17.602Z,2.00
2022-08-30T14:36:46.254Z,3.63
2022-08-30T14:39:20.226Z,3.75
2022-08-30T14:41:54.093Z,3.10
2022-08-30T14:44:25.869Z,6.13
2022-08-30T14:46:58.683Z,5.38
2022-08-30T14:49:27.739Z,4.13
2022-08-30T14:51:58.179Z,2.42
2022-08-30T14:54:28.631Z,6.97
2022-08-30T14:56:56.330Z,6.13
2022-08-30T14:59:25.124Z,3.70
2022-08-30T15:01:53.164Z,5.75
2022-08-30T15:04:23.949Z,3.53
2022-08-30T15:06:53.336Z,3.80
2022-08-30T15:09:23.854Z,5.18
2022-08-30T15:11:59.605Z,3.38
2022-08-30T15:14:31.378Z,2.40
2022-08-30T15:17:02.555Z,3.22
2022-08-30T15:19:31.189Z,2.53
2022-08-30T15:22:07.147Z,3.00
2022-08-30T15:24:35.593Z,3.10
2022-08-30T15:27:06.479Z,2.92
2022-08-30T15:29:33.785Z,2.80
2022-08-30T15:32:02.958Z,3.30
2022-08-30T15:34:33.453Z,6.20
2022-08-30T15:37:01.429Z,3.10
2022-08-30T15:39:29.212Z,2.45
2022-08-30T15:42:00.640Z,6.55
2022-08-30T15:44:30.944Z,2.03
2022-08-30T15:46:59.354Z,3.88
2022-08-30T15:49:29.129Z,5.55
2022-08-30T15:52:02.258Z,3.55
2022-08-30T15:54:30.474Z,3.03
2022-08-30T15:57:00.309Z,3.28
2022-08-30T15:59:32.506Z,5.22
2022-08-30T16:02:02.063Z,5.32
2022-08-30T16:04:30.585Z,3.28
2022-08-30T16:07:00.968Z,3.22
2022-08-30T16:09:32.636Z,2.10
2022-08-30T16:12:04.653Z,6.50
2022-08-30T16:14:33.063Z,4.15
2022-08-30T16:17:02.998Z,4.30
2022-08-30T16:19:30.785Z,3.28
2022-08-30T16:21:59.308Z,5.75
2022-08-30T16:24:26.829Z,4.50
2022-08-30T16:26:54.617Z,3.83
2022-08-30T16:29:25.121Z,5.53
2022-08-30T16:31:53.492Z,4.80
2022-08-30T16:34:22.413Z,4.22
2022-08-30T16:36:49.857Z,2.47
2022-08-30T16:39:19.621Z,4.80
2022-08-30T16:41:48.295Z,5.40
2022-08-30T16:44:17.739Z,6.32
2022-08-30T16:46:53.157Z,3.60
2022-08-30T16:49:25.782Z,1.98
2022-08-30T16:51:53.946Z,3.78
2022-08-30T16:54:22.227Z,4.85
2022-08-30T16:56:50.030Z,2.55
2022-08-30T16:59:17.710Z,4.82
2022-08-30T17:01:46.225Z,4.45
2022-08-30T17:04:18.381Z,2.70
2022-08-30T17:06:50.046Z,3.92
2022-08-30T17:09:20.253Z,4.40
2022-08-30T17:11:48.667Z,4.10
2022-08-30T17:14:21.582Z,1.50
2022-08-30T17:17:00.919Z,3.30
2022-08-30T17:19:28.676Z,6.28
2022-08-30T17:21:57.097Z,2.88
2022-08-30T17:24:25.662Z,2.28
2022-08-30T17:26:54.467Z,4.72
2022-08-30T17:29:21.843Z,4.90
2022-08-30T17:31:51.208Z,4.45
2022-08-30T17:34:22.099Z,2.65
2022-08-30T17:36:55.499Z,5.43
2022-08-30T17:39:26.732Z,2.17
2022-08-30T17:41:54.616Z,5.50
2022-08-30T17:44:28.458Z,2.25
2022-08-30T17:46:57.265Z,2.58
2022-08-30T17:49:28.460Z,3.15
2022-08-30T17:52:03.608Z,3.40
2022-08-30T17:54:34.033Z,3.60
2022-08-30T17:57:03.863Z,6.35
2022-08-30T17:59:35.568Z,2.15
2022-08-30T18:02:03.765Z,2.25
2022-08-30T18:04:34.062Z,3.70
2022-08-30T18:07:06.457Z,2.45
2022-08-30T18:09:36.169Z,2.43
2022-08-30T18:12:04.973Z,3.63
2022-08-30T18:14:39.407Z,3.03
2022-08-30T18:17:12.099Z,2.27
2022-08-30T18:19:46.327Z,2.20
2022-08-30T18:22:15.624Z,4.13
2022-08-30T18:24:43.091Z,3.42
2022-08-30T18:27:13.909Z,2.58
2022-08-30T18:29:43.430Z,3.80
2022-08-30T18:32:13.211Z,4.28
2022-08-30T18:34:42.979Z,2.17
2022-08-30T18:37:12.487Z,4.80
2022-08-30T18:39:41.818Z,3.13
2022-08-30T18:42:11.766Z,3.03
2022-08-30T18:44:43.554Z,2.22
2022-08-30T18:47:15.881Z,4.30
2022-08-30T18:49:45.553Z,2.50
2022-08-30T18:52:13.816Z,5.68
2022-08-30T18:54:52.614Z,3.25
2022-08-30T18:57:23.762Z,3.78
2022-08-30T18:59:51.829Z,6.03
2022-08-30T19:02:27.675Z,2.60
2022-08-30T19:04:55.432Z,3.15
2022-08-30T19:07:26.688Z,3.75
2022-08-30T19:10:00.661Z,4.15
2022-08-30T19:12:28.960Z,2.30
2022-08-30T19:14:56.703Z,2.40
2022-08-30T19:17:28.517Z,4.30
2022-08-30T19:19:56.041Z,2.47
2022-08-30T19:22:24.149Z,4.32
2022-08-30T19:24:55.203Z,2.72
2022-08-30T19:27:38.327Z,2.28
2022-08-30T19:30:21.666Z,1.98
2022-08-30T19:32:52.962Z,4.10
2022-08-30T19:35:20.850Z,5.85
2022-08-30T19:37:48.276Z,2.15
2022-08-30T19:40:20.751Z,2.75
2022-08-30T19:42:51.511Z,3.40
2022-08-30T19:45:22.984Z,4.03
2022-08-30T19:47:51.954Z,4.63
2022-08-30T19:50:21.090Z,5.03
2022-08-30T19:52:53.722Z,2.42
2022-08-30T19:57:56.821Z,2.28
2022-08-30T20:00:26.562Z,5.70
2022-08-30T20:02:53.889Z,2.95
2022-08-30T20:05:22.771Z,2.40
2022-08-30T20:07:51.561Z,1.98
2022-08-30T20:10:20.706Z,1.83
2022-08-30T20:12:53.563Z,3.65
2022-08-30T20:15:21.310Z,4.10
2022-08-30T20:18:06.249Z,7.30
2022-08-30T20:20:37.575Z,4.57
2022-08-30T20:23:06.809Z,2.50
2022-08-30T20:25:36.095Z,6.25
2022-08-30T20:28:04.256Z,2.58
2022-08-30T20:30:34.523Z,5.50
2022-08-30T20:33:06.956Z,2.63
2022-08-30T20:35:42.111Z,3.00
2022-08-30T20:38:20.673Z,4.95
2022-08-30T20:40:53.817Z,3.53
2022-08-30T20:43:28.795Z,4.63
2022-08-30T20:45:56.764Z,3.60
2022-08-30T20:48:27.066Z,2.15
2022-08-30T20:50:55.003Z,4.78
2022-08-30T20:53:22.283Z,3.40
2022-08-30T20:55:50.736Z,4.30
2022-08-30T20:58:18.203Z,4.10
2022-08-30T21:00:53.148Z,5.15
2022-08-30T21:03:27.765Z,4.18
2022-08-30T21:05:59.988Z,2.70
2022-08-30T21:08:27.613Z,3.08
2022-08-30T21:10:55.194Z,2.42
2022-08-30T21:13:25.151Z,5.70
2022-08-30T21:16:03.959Z,2.03
2022-08-30T21:18:34.092Z,2.30
2022-08-30T21:21:21.126Z,2.83
2022-08-30T21:24:00.125Z,1.88
2022-08-30T21:26:28.214Z,2.20
2022-08-30T21:28:56.052Z,3.47
2022-08-30T21:31:26.050Z,2.33
2022-08-30T21:33:54.881Z,1.85
2022-08-30T21:36:44.770Z,2.67
2022-08-30T21:39:26.214Z,2.22
2022-08-30T21:41:59.738Z,2.90
2022-08-30T21:44:29.516Z,4.30
2022-08-30T21:46:59.263Z,5.15
2022-08-30T21:49:29.094Z,6.45
2022-08-30T21:51:58.754Z,5.35
2022-08-30T21:54:31.265Z,3.90
2022-08-30T21:57:01.613Z,3.53
2022-08-30T21:59:29.130Z,2.63
2022-08-30T22:01:59.070Z,1.80
2022-08-30T22:04:26.913Z,2.15
2022-08-30T22:06:56.914Z,3.15
2022-08-30T22:09:28.178Z,2.42
2022-08-30T22:11:56.122Z,3.08
2022-08-30T22:14:24.596Z,3.85
2022-08-30T22:16:53.816Z,4.20
2022-08-30T22:19:24.226Z,2.38
2022-08-30T22:22:00.860Z,2.40
2022-08-30T22:24:32.616Z,3.10
2022-08-30T22:27:02.051Z,2.22
2022-08-30T22:29:33.813Z,2.50
2022-08-30T22:32:01.183Z,2.47
2022-08-30T22:34:31.914Z,5.28
2022-08-30T22:36:59.463Z,2.20
2022-08-30T22:39:29.695Z,1.40
2022-08-30T22:42:01.790Z,2.17
2022-08-30T22:44:29.056Z,2.05
2022-08-30T22:46:56.297Z,3.72
2022-08-30T22:49:23.970Z,2.38
2022-08-30T22:51:51.199Z,3.83
2022-08-30T22:54:19.009Z,4.88
2022-08-30T22:56:49.927Z,3.92
2022-08-30T22:59:17.683Z,2.72
2022-08-30T23:01:49.787Z,4.25
2022-08-30T23:04:19.662Z,5.78
2022-08-30T23:06:49.900Z,2.88
2022-08-30T23:09:22.754Z,6.18
2022-08-30T23:11:50.003Z,4.03
2022-08-30T23:14:17.678Z,3.10
2022-08-30T23:16:47.945Z,1.90
2022-08-30T23:19:17.798Z,3.47
2022-08-30T23:21:45.051Z,1.83
2022-08-30T23:24:30.937Z,3.35
2022-08-30T23:27:16.624Z,2.92
2022-08-30T23:30:02.912Z,2.60
2022-08-30T23:32:48.803Z,3.85
2022-08-30T23:35:34.682Z,3.75
2022-08-30T23:38:24.893Z,4.20
2022-08-30T23:41:10.920Z,4.18
2022-08-30T23:43:56.770Z,2.88
2022-08-30T23:46:42.506Z,1.63
2022-08-30T23:49:28.435Z,4.50
2022-08-30T23:52:14.132Z,5.78
2022-08-30T23:55:00.071Z,5.53
2022-08-30T23:57:46.507Z,3.10
